sensor_id;sensor_type;location;lat;lon;timestamp;P1;durP1;ratioP1;P2;durP2;ratioP2
7487;SDS011;3785;52.260;4.728;2023-07-13T00:02:24;6.72;;;1.88;;
7487;SDS011;3785;52.260;4.728;2023-07-13T00:05:46;7.10;;;2.00;;
7487;SDS011;3785;52.260;4.728;2023-07-13T00:09:07;10.93;;;2.35;;
7487;SDS011;3785;52.260;4.728;2023-07-13T00:12:31;5.90;;;2.17;;
7487;SDS011;3785;52.260;4.728;2023-07-13T00:15:53;7.85;;;3.05;;
7487;SDS011;3785;52.260;4.728;2023-07-13T00:19:14;6.07;;;1.67;;
7487;SDS011;3785;52.260;4.728;2023-07-13T00:22:35;6.57;;;1.67;;
7487;SDS011;3785;52.260;4.728;2023-07-13T00:25:55;5.28;;;1.98;;
7487;SDS011;3785;52.260;4.728;2023-07-13T00:29:17;6.28;;;1.80;;
7487;SDS011;3785;52.260;4.728;2023-07-13T00:32:38;6.68;;;1.83;;
7487;SDS011;3785;52.260;4.728;2023-07-13T00:35:59;5.72;;;1.40;;
7487;SDS011;3785;52.260;4.728;2023-07-13T00:39:19;4.57;;;1.05;;
7487;SDS011;3785;52.260;4.728;2023-07-13T00:42:41;4.57;;;1.15;;
7487;SDS011;3785;52.260;4.728;2023-07-13T00:46:09;4.05;;;1.08;;
7487;SDS011;3785;52.260;4.728;2023-07-13T00:49:34;4.25;;;0.90;;
7487;SDS011;3785;52.260;4.728;2023-07-13T00:52:55;2.97;;;0.90;;
7487;SDS011;3785;52.260;4.728;2023-07-13T00:56:18;2.60;;;0.90;;
7487;SDS011;3785;52.260;4.728;2023-07-13T00:59:39;2.88;;;1.00;;
7487;SDS011;3785;52.260;4.728;2023-07-13T01:03:02;1.90;;;0.82;;
7487;SDS011;3785;52.260;4.728;2023-07-13T01:06:24;1.98;;;0.80;;
7487;SDS011;3785;52.260;4.728;2023-07-13T01:09:45;4.68;;;1.00;;
7487;SDS011;3785;52.260;4.728;2023-07-13T01:13:06;1.98;;;0.80;;
7487;SDS011;3785;52.260;4.728;2023-07-13T01:16:29;1.40;;;0.93;;
7487;SDS011;3785;52.260;4.728;2023-07-13T01:19:51;2.10;;;0.75;;
7487;SDS011;3785;52.260;4.728;2023-07-13T01:23:13;3.53;;;0.90;;
7487;SDS011;3785;52.260;4.728;2023-07-13T01:26:33;1.20;;;0.70;;
7487;SDS011;3785;52.260;4.728;2023-07-13T01:29:54;5.70;;;0.80;;
7487;SDS011;3785;52.260;4.728;2023-07-13T01:33:23;1.85;;;0.80;;
7487;SDS011;3785;52.260;4.728;2023-07-13T01:36:44;2.97;;;0.70;;
7487;SDS011;3785;52.260;4.728;2023-07-13T01:40:05;3.30;;;1.30;;
7487;SDS011;3785;52.260;4.728;2023-07-13T01:43:28;2.95;;;0.85;;
7487;SDS011;3785;52.260;4.728;2023-07-13T01:46:49;1.40;;;0.85;;
7487;SDS011;3785;52.260;4.728;2023-07-13T01:50:09;2.38;;;0.80;;
7487;SDS011;3785;52.260;4.728;2023-07-13T01:53:30;1.60;;;0.70;;
7487;SDS011;3785;52.260;4.728;2023-07-13T01:56:51;1.88;;;0.77;;
7487;SDS011;3785;52.260;4.728;2023-07-13T02:00:12;2.92;;;0.90;;
7487;SDS011;3785;52.260;4.728;2023-07-13T02:03:33;3.50;;;0.90;;
7487;SDS011;3785;52.260;4.728;2023-07-13T02:06:54;2.17;;;0.80;;
7487;SDS011;3785;52.260;4.728;2023-07-13T02:10:15;1.58;;;0.70;;
7487;SDS011;3785;52.260;4.728;2023-07-13T02:13:36;1.80;;;0.80;;
7487;SDS011;3785;52.260;4.728;2023-07-13T02:16:57;1.48;;;0.60;;
7487;SDS011;3785;52.260;4.728;2023-07-13T02:20:17;1.48;;;0.50;;
7487;SDS011;3785;52.260;4.728;2023-07-13T02:23:38;1.50;;;0.80;;
7487;SDS011;3785;52.260;4.728;2023-07-13T02:26:59;1.15;;;0.60;;
7487;SDS011;3785;52.260;4.728;2023-07-13T02:30:19;0.80;;;0.60;;
7487;SDS011;3785;52.260;4.728;2023-07-13T02:33:41;1.38;;;0.60;;
7487;SDS011;3785;52.260;4.728;2023-07-13T02:37:02;5.85;;;1.88;;
7487;SDS011;3785;52.260;4.728;2023-07-13T02:40:23;0.95;;;0.52;;
7487;SDS011;3785;52.260;4.728;2023-07-13T02:43:43;1.50;;;0.63;;
7487;SDS011;3785;52.260;4.728;2023-07-13T02:47:04;1.10;;;0.60;;
7487;SDS011;3785;52.260;4.728;2023-07-13T02:50:25;1.20;;;0.82;;
7487;SDS011;3785;52.260;4.728;2023-07-13T02:53:45;1.48;;;0.60;;
7487;SDS011;3785;52.260;4.728;2023-07-13T02:57:06;2.22;;;0.80;;
7487;SDS011;3785;52.260;4.728;2023-07-13T03:00:27;2.45;;;0.60;;
7487;SDS011;3785;52.260;4.728;2023-07-13T03:03:48;2.85;;;0.70;;
7487;SDS011;3785;52.260;4.728;2023-07-13T03:07:09;3.08;;;0.85;;
7487;SDS011;3785;52.260;4.728;2023-07-13T03:10:30;2.72;;;0.70;;
7487;SDS011;3785;52.260;4.728;2023-07-13T03:13:51;2.83;;;0.80;;
7487;SDS011;3785;52.260;4.728;2023-07-13T03:17:12;1.50;;;0.70;;
7487;SDS011;3785;52.260;4.728;2023-07-13T03:20:33;1.75;;;0.55;;
7487;SDS011;3785;52.260;4.728;2023-07-13T03:23:54;1.52;;;0.70;;
7487;SDS011;3785;52.260;4.728;2023-07-13T03:27:15;0.75;;;0.50;;
7487;SDS011;3785;52.260;4.728;2023-07-13T03:30:37;2.13;;;0.82;;
7487;SDS011;3785;52.260;4.728;2023-07-13T03:33:58;3.40;;;0.90;;
7487;SDS011;3785;52.260;4.728;2023-07-13T03:37:18;1.73;;;0.75;;
7487;SDS011;3785;52.260;4.728;2023-07-13T03:40:39;1.65;;;0.70;;
7487;SDS011;3785;52.260;4.728;2023-07-13T03:44:00;2.08;;;0.90;;
7487;SDS011;3785;52.260;4.728;2023-07-13T03:47:20;3.47;;;0.77;;
7487;SDS011;3785;52.260;4.728;2023-07-13T03:50:41;1.45;;;0.90;;
7487;SDS011;3785;52.260;4.728;2023-07-13T03:54:02;2.47;;;1.00;;
7487;SDS011;3785;52.260;4.728;2023-07-13T03:57:23;4.25;;;1.25;;
7487;SDS011;3785;52.260;4.728;2023-07-13T04:00:43;1.77;;;0.90;;
7487;SDS011;3785;52.260;4.728;2023-07-13T04:04:04;4.18;;;0.90;;
7487;SDS011;3785;52.260;4.728;2023-07-13T04:07:24;3.40;;;0.85;;
7487;SDS011;3785;52.260;4.728;2023-07-13T04:10:46;4.72;;;1.00;;
7487;SDS011;3785;52.260;4.728;2023-07-13T04:14:07;4.18;;;1.15;;
7487;SDS011;3785;52.260;4.728;2023-07-13T04:17:27;3.83;;;1.10;;
7487;SDS011;3785;52.260;4.728;2023-07-13T04:20:48;3.78;;;1.08;;
7487;SDS011;3785;52.260;4.728;2023-07-13T04:24:09;2.40;;;0.90;;
7487;SDS011;3785;52.260;4.728;2023-07-13T04:27:30;3.83;;;0.90;;
7487;SDS011;3785;52.260;4.728;2023-07-13T04:30:51;3.85;;;1.10;;
7487;SDS011;3785;52.260;4.728;2023-07-13T04:34:12;2.22;;;0.95;;
7487;SDS011;3785;52.260;4.728;2023-07-13T04:37:32;4.60;;;1.13;;
7487;SDS011;3785;52.260;4.728;2023-07-13T04:40:57;5.10;;;1.95;;
7487;SDS011;3785;52.260;4.728;2023-07-13T04:44:22;3.55;;;1.13;;
7487;SDS011;3785;52.260;4.728;2023-07-13T04:47:43;3.38;;;1.73;;
7487;SDS011;3785;52.260;4.728;2023-07-13T04:51:04;4.93;;;1.45;;
7487;SDS011;3785;52.260;4.728;2023-07-13T04:54:24;2.92;;;1.23;;
7487;SDS011;3785;52.260;4.728;2023-07-13T04:57:46;2.55;;;1.02;;
7487;SDS011;3785;52.260;4.728;2023-07-13T05:01:07;4.63;;;1.23;;
7487;SDS011;3785;52.260;4.728;2023-07-13T05:04:29;3.30;;;1.60;;
7487;SDS011;3785;52.260;4.728;2023-07-13T05:07:49;3.15;;;1.15;;
7487;SDS011;3785;52.260;4.728;2023-07-13T05:11:10;3.58;;;1.40;;
7487;SDS011;3785;52.260;4.728;2023-07-13T05:14:30;3.95;;;1.60;;
7487;SDS011;3785;52.260;4.728;2023-07-13T05:17:51;4.72;;;1.60;;
7487;SDS011;3785;52.260;4.728;2023-07-13T05:21:12;4.70;;;1.48;;
7487;SDS011;3785;52.260;4.728;2023-07-13T05:24:32;6.28;;;1.70;;
7487;SDS011;3785;52.260;4.728;2023-07-13T05:27:53;6.95;;;1.92;;
7487;SDS011;3785;52.260;4.728;2023-07-13T05:31:14;3.75;;;1.23;;
7487;SDS011;3785;52.260;4.728;2023-07-13T05:34:35;4.75;;;1.55;;
7487;SDS011;3785;52.260;4.728;2023-07-13T05:37:55;6.00;;;1.50;;
7487;SDS011;3785;52.260;4.728;2023-07-13T05:41:16;3.72;;;1.67;;
7487;SDS011;3785;52.260;4.728;2023-07-13T05:44:37;2.67;;;1.40;;
7487;SDS011;3785;52.260;4.728;2023-07-13T05:47:57;3.35;;;1.17;;
7487;SDS011;3785;52.260;4.728;2023-07-13T05:51:18;3.55;;;1.60;;
7487;SDS011;3785;52.260;4.728;2023-07-13T05:54:38;4.68;;;1.60;;
7487;SDS011;3785;52.260;4.728;2023-07-13T05:57:59;5.28;;;2.17;;
7487;SDS011;3785;52.260;4.728;2023-07-13T06:01:20;4.10;;;1.23;;
7487;SDS011;3785;52.260;4.728;2023-07-13T06:04:42;1.92;;;1.00;;
7487;SDS011;3785;52.260;4.728;2023-07-13T06:08:03;3.83;;;1.35;;
7487;SDS011;3785;52.260;4.728;2023-07-13T06:11:25;3.03;;;1.15;;
7487;SDS011;3785;52.260;4.728;2023-07-13T06:14:47;3.50;;;1.55;;
7487;SDS011;3785;52.260;4.728;2023-07-13T06:18:08;3.65;;;1.02;;
7487;SDS011;3785;52.260;4.728;2023-07-13T06:21:28;4.35;;;1.23;;
7487;SDS011;3785;52.260;4.728;2023-07-13T06:24:49;2.03;;;0.98;;
7487;SDS011;3785;52.260;4.728;2023-07-13T06:28:10;3.80;;;1.40;;
7487;SDS011;3785;52.260;4.728;2023-07-13T06:31:30;3.08;;;1.08;;
7487;SDS011;3785;52.260;4.728;2023-07-13T06:34:51;3.97;;;1.15;;
7487;SDS011;3785;52.260;4.728;2023-07-13T06:38:12;2.05;;;1.13;;
7487;SDS011;3785;52.260;4.728;2023-07-13T06:41:32;2.67;;;1.38;;
7487;SDS011;3785;52.260;4.728;2023-07-13T06:44:54;2.45;;;1.30;;
7487;SDS011;3785;52.260;4.728;2023-07-13T06:48:14;2.58;;;1.20;;
7487;SDS011;3785;52.260;4.728;2023-07-13T06:51:35;3.47;;;1.48;;
7487;SDS011;3785;52.260;4.728;2023-07-13T06:54:56;2.83;;;1.45;;
7487;SDS011;3785;52.260;4.728;2023-07-13T06:58:17;3.20;;;1.30;;
7487;SDS011;3785;52.260;4.728;2023-07-13T07:01:38;3.22;;;1.20;;
7487;SDS011;3785;52.260;4.728;2023-07-13T07:04:59;2.72;;;1.23;;
7487;SDS011;3785;52.260;4.728;2023-07-13T07:08:19;2.53;;;1.15;;
7487;SDS011;3785;52.260;4.728;2023-07-13T07:11:40;2.90;;;1.25;;
7487;SDS011;3785;52.260;4.728;2023-07-13T07:15:02;3.28;;;1.33;;
7487;SDS011;3785;52.260;4.728;2023-07-13T07:18:23;2.35;;;1.20;;
7487;SDS011;3785;52.260;4.728;2023-07-13T07:21:43;3.17;;;1.25;;
7487;SDS011;3785;52.260;4.728;2023-07-13T07:25:04;2.28;;;0.90;;
7487;SDS011;3785;52.260;4.728;2023-07-13T07:28:25;1.70;;;0.82;;
7487;SDS011;3785;52.260;4.728;2023-07-13T07:31:48;2.75;;;1.00;;
7487;SDS011;3785;52.260;4.728;2023-07-13T07:35:08;2.00;;;0.90;;
7487;SDS011;3785;52.260;4.728;2023-07-13T07:38:29;3.30;;;1.05;;
7487;SDS011;3785;52.260;4.728;2023-07-13T07:41:50;3.88;;;1.10;;
7487;SDS011;3785;52.260;4.728;2023-07-13T07:45:10;2.85;;;1.10;;
7487;SDS011;3785;52.260;4.728;2023-07-13T07:48:31;2.17;;;1.10;;
7487;SDS011;3785;52.260;4.728;2023-07-13T07:51:52;3.65;;;1.02;;
7487;SDS011;3785;52.260;4.728;2023-07-13T07:55:12;5.22;;;1.30;;
7487;SDS011;3785;52.260;4.728;2023-07-13T07:58:33;2.38;;;1.17;;
7487;SDS011;3785;52.260;4.728;2023-07-13T08:01:54;3.45;;;1.33;;
7487;SDS011;3785;52.260;4.728;2023-07-13T08:05:14;3.45;;;1.20;;
7487;SDS011;3785;52.260;4.728;2023-07-13T08:08:35;3.83;;;1.10;;
7487;SDS011;3785;52.260;4.728;2023-07-13T08:11:56;3.92;;;1.02;;
7487;SDS011;3785;52.260;4.728;2023-07-13T08:15:16;2.13;;;1.13;;
7487;SDS011;3785;52.260;4.728;2023-07-13T08:18:37;3.80;;;1.40;;
7487;SDS011;3785;52.260;4.728;2023-07-13T08:21:58;2.85;;;1.05;;
7487;SDS011;3785;52.260;4.728;2023-07-13T08:25:19;2.55;;;1.00;;
7487;SDS011;3785;52.260;4.728;2023-07-13T08:28:40;4.28;;;0.90;;
7487;SDS011;3785;52.260;4.728;2023-07-13T08:32:01;2.00;;;0.80;;
7487;SDS011;3785;52.260;4.728;2023-07-13T08:35:22;2.65;;;1.08;;
7487;SDS011;3785;52.260;4.728;2023-07-13T08:38:42;2.90;;;1.08;;
7487;SDS011;3785;52.260;4.728;2023-07-13T08:42:52;1.45;;;0.70;;
7487;SDS011;3785;52.260;4.728;2023-07-13T08:46:02;3.22;;;1.00;;
7487;SDS011;3785;52.260;4.728;2023-07-13T08:49:30;2.50;;;0.98;;
7487;SDS011;3785;52.260;4.728;2023-07-13T08:52:51;2.67;;;1.10;;
7487;SDS011;3785;52.260;4.728;2023-07-13T08:56:19;2.20;;;1.10;;
7487;SDS011;3785;52.260;4.728;2023-07-13T08:59:42;2.03;;;0.80;;
7487;SDS011;3785;52.260;4.728;2023-07-13T09:03:04;1.88;;;0.90;;
7487;SDS011;3785;52.260;4.728;2023-07-13T09:06:27;3.03;;;1.00;;
7487;SDS011;3785;52.260;4.728;2023-07-13T09:10:29;3.20;;;1.05;;
7487;SDS011;3785;52.260;4.728;2023-07-13T09:17:41;2.33;;;1.02;;
7487;SDS011;3785;52.260;4.728;2023-07-13T09:21:13;4.30;;;1.15;;
7487;SDS011;3785;52.260;4.728;2023-07-13T09:24:50;3.45;;;1.20;;
7487;SDS011;3785;52.260;4.728;2023-07-13T09:28:28;4.63;;;1.38;;
7487;SDS011;3785;52.260;4.728;2023-07-13T09:31:53;3.50;;;1.42;;
7487;SDS011;3785;52.260;4.728;2023-07-13T09:35:17;3.45;;;1.10;;
7487;SDS011;3785;52.260;4.728;2023-07-13T09:38:41;1.65;;;1.10;;
7487;SDS011;3785;52.260;4.728;2023-07-13T09:45:33;2.92;;;1.00;;
7487;SDS011;3785;52.260;4.728;2023-07-13T09:48:55;3.90;;;1.20;;
7487;SDS011;3785;52.260;4.728;2023-07-13T09:52:16;3.42;;;1.35;;
7487;SDS011;3785;52.260;4.728;2023-07-13T09:55:38;3.90;;;1.15;;
7487;SDS011;3785;52.260;4.728;2023-07-13T09:58:59;3.10;;;1.08;;
7487;SDS011;3785;52.260;4.728;2023-07-13T10:05:52;4.07;;;1.13;;
7487;SDS011;3785;52.260;4.728;2023-07-13T10:09:15;3.33;;;1.10;;
7487;SDS011;3785;52.260;4.728;2023-07-13T10:12:38;3.30;;;1.40;;
7487;SDS011;3785;52.260;4.728;2023-07-13T10:15:59;2.20;;;1.40;;
7487;SDS011;3785;52.260;4.728;2023-07-13T10:19:24;5.13;;;1.63;;
7487;SDS011;3785;52.260;4.728;2023-07-13T10:23:00;5.25;;;1.15;;
7487;SDS011;3785;52.260;4.728;2023-07-13T10:26:29;6.22;;;1.73;;
7487;SDS011;3785;52.260;4.728;2023-07-13T10:29:58;3.25;;;1.10;;
7487;SDS011;3785;52.260;4.728;2023-07-13T10:33:22;6.05;;;1.13;;
7487;SDS011;3785;52.260;4.728;2023-07-13T10:36:44;1.67;;;1.27;;
7487;SDS011;3785;52.260;4.728;2023-07-13T10:40:11;2.95;;;1.00;;
7487;SDS011;3785;52.260;4.728;2023-07-13T10:43:43;4.93;;;1.40;;
7487;SDS011;3785;52.260;4.728;2023-07-13T10:47:07;3.10;;;1.45;;
7487;SDS011;3785;52.260;4.728;2023-07-13T10:50:30;3.08;;;1.20;;
7487;SDS011;3785;52.260;4.728;2023-07-13T10:57:31;3.05;;;1.30;;
7487;SDS011;3785;52.260;4.728;2023-07-13T11:01:10;4.03;;;1.13;;
7487;SDS011;3785;52.260;4.728;2023-07-13T11:04:39;2.03;;;0.95;;
7487;SDS011;3785;52.260;4.728;2023-07-13T11:11:50;1.98;;;1.08;;
7487;SDS011;3785;52.260;4.728;2023-07-13T11:15:12;5.13;;;1.00;;
7487;SDS011;3785;52.260;4.728;2023-07-13T11:18:33;3.10;;;1.08;;
7487;SDS011;3785;52.260;4.728;2023-07-13T11:22:10;2.50;;;1.08;;
7487;SDS011;3785;52.260;4.728;2023-07-13T11:25:33;2.28;;;0.85;;
7487;SDS011;3785;52.260;4.728;2023-07-13T11:28:54;2.35;;;1.00;;
7487;SDS011;3785;52.260;4.728;2023-07-13T11:32:25;2.95;;;1.10;;
7487;SDS011;3785;52.260;4.728;2023-07-13T11:36:36;5.47;;;1.35;;
7487;SDS011;3785;52.260;4.728;2023-07-13T11:39:41;5.88;;;1.90;;
7487;SDS011;3785;52.260;4.728;2023-07-13T11:43:02;4.60;;;1.30;;
7487;SDS011;3785;52.260;4.728;2023-07-13T11:46:27;2.97;;;1.33;;
7487;SDS011;3785;52.260;4.728;2023-07-13T11:49:49;2.75;;;1.23;;
7487;SDS011;3785;52.260;4.728;2023-07-13T11:53:16;3.22;;;1.38;;
7487;SDS011;3785;52.260;4.728;2023-07-13T11:56:36;4.28;;;1.30;;
7487;SDS011;3785;52.260;4.728;2023-07-13T11:59:57;2.90;;;1.27;;
7487;SDS011;3785;52.260;4.728;2023-07-13T12:03:20;2.20;;;1.20;;
7487;SDS011;3785;52.260;4.728;2023-07-13T12:06:44;3.30;;;0.93;;
7487;SDS011;3785;52.260;4.728;2023-07-13T12:13:38;3.00;;;1.42;;
7487;SDS011;3785;52.260;4.728;2023-07-13T12:16:59;3.45;;;1.02;;
7487;SDS011;3785;52.260;4.728;2023-07-13T12:20:21;3.70;;;1.13;;
7487;SDS011;3785;52.260;4.728;2023-07-13T12:23:44;3.25;;;1.38;;
7487;SDS011;3785;52.260;4.728;2023-07-13T12:30:43;2.45;;;1.52;;
7487;SDS011;3785;52.260;4.728;2023-07-13T12:34:10;4.18;;;1.55;;
7487;SDS011;3785;52.260;4.728;2023-07-13T12:37:33;2.92;;;1.80;;
7487;SDS011;3785;52.260;4.728;2023-07-13T12:40:55;5.05;;;1.58;;
7487;SDS011;3785;52.260;4.728;2023-07-13T12:44:16;3.22;;;1.35;;
7487;SDS011;3785;52.260;4.728;2023-07-13T12:47:42;2.15;;;1.00;;
7487;SDS011;3785;52.260;4.728;2023-07-13T12:51:03;2.88;;;1.48;;
7487;SDS011;3785;52.260;4.728;2023-07-13T12:54:24;3.90;;;1.63;;
7487;SDS011;3785;52.260;4.728;2023-07-13T13:01:09;3.28;;;1.30;;
7487;SDS011;3785;52.260;4.728;2023-07-13T13:04:32;4.25;;;1.50;;
7487;SDS011;3785;52.260;4.728;2023-07-13T13:07:53;4.00;;;1.50;;
7487;SDS011;3785;52.260;4.728;2023-07-13T13:11:17;3.92;;;1.25;;
7487;SDS011;3785;52.260;4.728;2023-07-13T13:14:39;3.08;;;1.20;;
7487;SDS011;3785;52.260;4.728;2023-07-13T13:17:59;2.42;;;1.02;;
7487;SDS011;3785;52.260;4.728;2023-07-13T13:21:20;3.88;;;1.80;;
7487;SDS011;3785;52.260;4.728;2023-07-13T13:24:41;2.10;;;1.08;;
7487;SDS011;3785;52.260;4.728;2023-07-13T13:28:01;2.03;;;1.10;;
7487;SDS011;3785;52.260;4.728;2023-07-13T13:31:22;2.38;;;1.05;;
7487;SDS011;3785;52.260;4.728;2023-07-13T13:34:43;3.42;;;1.10;;
7487;SDS011;3785;52.260;4.728;2023-07-13T13:38:09;2.40;;;1.20;;
7487;SDS011;3785;52.260;4.728;2023-07-13T13:41:34;3.45;;;1.10;;
7487;SDS011;3785;52.260;4.728;2023-07-13T13:44:54;4.45;;;1.50;;
7487;SDS011;3785;52.260;4.728;2023-07-13T13:48:20;4.05;;;1.17;;
7487;SDS011;3785;52.260;4.728;2023-07-13T13:51:50;2.20;;;1.00;;
7487;SDS011;3785;52.260;4.728;2023-07-13T13:55:15;2.50;;;1.20;;
7487;SDS011;3785;52.260;4.728;2023-07-13T13:58:40;2.85;;;1.08;;
7487;SDS011;3785;52.260;4.728;2023-07-13T14:02:01;1.58;;;0.85;;
7487;SDS011;3785;52.260;4.728;2023-07-13T14:05:22;3.15;;;1.20;;
7487;SDS011;3785;52.260;4.728;2023-07-13T14:08:47;2.20;;;1.20;;
7487;SDS011;3785;52.260;4.728;2023-07-13T14:12:08;2.67;;;1.35;;
7487;SDS011;3785;52.260;4.728;2023-07-13T14:15:32;2.30;;;1.08;;
7487;SDS011;3785;52.260;4.728;2023-07-13T14:18:52;2.30;;;0.90;;
7487;SDS011;3785;52.260;4.728;2023-07-13T14:22:13;2.45;;;1.10;;
7487;SDS011;3785;52.260;4.728;2023-07-13T14:25:34;1.95;;;1.20;;
7487;SDS011;3785;52.260;4.728;2023-07-13T14:28:55;2.88;;;1.40;;
7487;SDS011;3785;52.260;4.728;2023-07-13T14:32:17;1.58;;;0.68;;
7487;SDS011;3785;52.260;4.728;2023-07-13T14:35:38;2.03;;;0.88;;
7487;SDS011;3785;52.260;4.728;2023-07-13T14:38:59;3.90;;;1.30;;
7487;SDS011;3785;52.260;4.728;2023-07-13T14:42:26;2.63;;;1.23;;
7487;SDS011;3785;52.260;4.728;2023-07-13T14:45:47;1.95;;;1.10;;
7487;SDS011;3785;52.260;4.728;2023-07-13T14:49:21;2.33;;;0.93;;
7487;SDS011;3785;52.260;4.728;2023-07-13T14:52:45;3.17;;;1.25;;
7487;SDS011;3785;52.260;4.728;2023-07-13T14:56:11;3.22;;;0.90;;
7487;SDS011;3785;52.260;4.728;2023-07-13T14:59:32;2.08;;;1.30;;
7487;SDS011;3785;52.260;4.728;2023-07-13T15:02:53;2.17;;;0.75;;
7487;SDS011;3785;52.260;4.728;2023-07-13T15:06:15;3.92;;;0.90;;
7487;SDS011;3785;52.260;4.728;2023-07-13T15:09:37;2.20;;;1.10;;
7487;SDS011;3785;52.260;4.728;2023-07-13T15:12:58;3.08;;;0.85;;
7487;SDS011;3785;52.260;4.728;2023-07-13T15:16:21;4.18;;;0.90;;
7487;SDS011;3785;52.260;4.728;2023-07-13T15:19:44;1.90;;;0.80;;
7487;SDS011;3785;52.260;4.728;2023-07-13T15:23:04;1.95;;;1.00;;
7487;SDS011;3785;52.260;4.728;2023-07-13T15:26:26;3.47;;;1.08;;
7487;SDS011;3785;52.260;4.728;2023-07-13T15:29:46;3.15;;;1.00;;
7487;SDS011;3785;52.260;4.728;2023-07-13T15:33:26;1.73;;;0.73;;
7487;SDS011;3785;52.260;4.728;2023-07-13T15:36:48;2.15;;;0.80;;
7487;SDS011;3785;52.260;4.728;2023-07-13T15:40:09;2.03;;;0.80;;
7487;SDS011;3785;52.260;4.728;2023-07-13T15:43:32;2.47;;;0.73;;
7487;SDS011;3785;52.260;4.728;2023-07-13T15:46:54;1.83;;;0.70;;
7487;SDS011;3785;52.260;4.728;2023-07-13T15:50:16;1.42;;;0.80;;
7487;SDS011;3785;52.260;4.728;2023-07-13T15:53:38;1.48;;;0.80;;
7487;SDS011;3785;52.260;4.728;2023-07-13T15:57:00;3.40;;;0.95;;
7487;SDS011;3785;52.260;4.728;2023-07-13T16:00:25;2.08;;;0.95;;
7487;SDS011;3785;52.260;4.728;2023-07-13T16:03:47;2.38;;;1.15;;
7487;SDS011;3785;52.260;4.728;2023-07-13T16:07:09;2.65;;;0.90;;
7487;SDS011;3785;52.260;4.728;2023-07-13T16:10:36;1.92;;;0.80;;
7487;SDS011;3785;52.260;4.728;2023-07-13T16:14:00;1.92;;;0.90;;
7487;SDS011;3785;52.260;4.728;2023-07-13T16:17:21;2.85;;;0.88;;
7487;SDS011;3785;52.260;4.728;2023-07-13T16:20:42;1.48;;;0.70;;
7487;SDS011;3785;52.260;4.728;2023-07-13T16:24:03;2.38;;;0.90;;
7487;SDS011;3785;52.260;4.728;2023-07-13T16:27:25;3.05;;;0.80;;
7487;SDS011;3785;52.260;4.728;2023-07-13T16:30:47;1.70;;;0.80;;
7487;SDS011;3785;52.260;4.728;2023-07-13T16:34:08;1.63;;;0.80;;
7487;SDS011;3785;52.260;4.728;2023-07-13T16:37:29;2.97;;;0.80;;
7487;SDS011;3785;52.260;4.728;2023-07-13T16:40:49;1.95;;;1.00;;
7487;SDS011;3785;52.260;4.728;2023-07-13T16:44:11;1.63;;;0.80;;
7487;SDS011;3785;52.260;4.728;2023-07-13T16:47:33;1.88;;;0.80;;
7487;SDS011;3785;52.260;4.728;2023-07-13T16:50:54;2.67;;;1.08;;
7487;SDS011;3785;52.260;4.728;2023-07-13T16:54:16;4.43;;;1.08;;
7487;SDS011;3785;52.260;4.728;2023-07-13T16:57:38;2.55;;;0.88;;
7487;SDS011;3785;52.260;4.728;2023-07-13T17:01:02;3.13;;;1.10;;
7487;SDS011;3785;52.260;4.728;2023-07-13T17:04:23;1.27;;;0.60;;
7487;SDS011;3785;52.260;4.728;2023-07-13T17:07:44;2.13;;;0.70;;
7487;SDS011;3785;52.260;4.728;2023-07-13T17:11:06;1.83;;;0.88;;
7487;SDS011;3785;52.260;4.728;2023-07-13T17:14:27;3.92;;;1.08;;
7487;SDS011;3785;52.260;4.728;2023-07-13T17:17:50;3.05;;;0.80;;
7487;SDS011;3785;52.260;4.728;2023-07-13T17:21:13;3.80;;;0.75;;
7487;SDS011;3785;52.260;4.728;2023-07-13T17:24:35;1.80;;;0.70;;
7487;SDS011;3785;52.260;4.728;2023-07-13T17:27:56;2.53;;;0.68;;
7487;SDS011;3785;52.260;4.728;2023-07-13T17:31:17;1.85;;;0.73;;
7487;SDS011;3785;52.260;4.728;2023-07-13T17:34:40;3.05;;;0.75;;
7487;SDS011;3785;52.260;4.728;2023-07-13T17:38:05;1.83;;;0.70;;
7487;SDS011;3785;52.260;4.728;2023-07-13T17:41:26;3.67;;;0.90;;
7487;SDS011;3785;52.260;4.728;2023-07-13T17:44:47;1.92;;;0.80;;
7487;SDS011;3785;52.260;4.728;2023-07-13T17:48:07;5.40;;;0.90;;
7487;SDS011;3785;52.260;4.728;2023-07-13T17:51:30;2.53;;;0.90;;
7487;SDS011;3785;52.260;4.728;2023-07-13T17:54:51;1.65;;;0.73;;
7487;SDS011;3785;52.260;4.728;2023-07-13T17:58:12;2.95;;;0.80;;
7487;SDS011;3785;52.260;4.728;2023-07-13T18:01:33;2.38;;;0.80;;
7487;SDS011;3785;52.260;4.728;2023-07-13T18:04:54;4.10;;;0.90;;
7487;SDS011;3785;52.260;4.728;2023-07-13T18:11:41;2.95;;;0.88;;
7487;SDS011;3785;52.260;4.728;2023-07-13T18:15:03;4.60;;;0.80;;
7487;SDS011;3785;52.260;4.728;2023-07-13T18:18:24;2.85;;;0.85;;
7487;SDS011;3785;52.260;4.728;2023-07-13T18:21:46;2.67;;;0.90;;
7487;SDS011;3785;52.260;4.728;2023-07-13T18:25:13;1.65;;;0.82;;
7487;SDS011;3785;52.260;4.728;2023-07-13T18:28:35;2.08;;;1.02;;
7487;SDS011;3785;52.260;4.728;2023-07-13T18:31:56;2.45;;;0.77;;
7487;SDS011;3785;52.260;4.728;2023-07-13T18:35:19;2.30;;;0.82;;
7487;SDS011;3785;52.260;4.728;2023-07-13T18:38:45;3.38;;;0.90;;
7487;SDS011;3785;52.260;4.728;2023-07-13T18:42:09;1.85;;;1.20;;
7487;SDS011;3785;52.260;4.728;2023-07-13T18:45:30;2.00;;;0.75;;
7487;SDS011;3785;52.260;4.728;2023-07-13T18:48:51;1.98;;;0.73;;
7487;SDS011;3785;52.260;4.728;2023-07-13T18:52:18;3.85;;;1.15;;
7487;SDS011;3785;52.260;4.728;2023-07-13T18:55:40;3.13;;;0.73;;
7487;SDS011;3785;52.260;4.728;2023-07-13T18:59:01;2.75;;;1.20;;
7487;SDS011;3785;52.260;4.728;2023-07-13T19:02:21;4.05;;;1.08;;
7487;SDS011;3785;52.260;4.728;2023-07-13T19:05:42;4.32;;;1.10;;
7487;SDS011;3785;52.260;4.728;2023-07-13T19:09:04;3.13;;;1.20;;
7487;SDS011;3785;52.260;4.728;2023-07-13T19:12:29;1.70;;;0.80;;
7487;SDS011;3785;52.260;4.728;2023-07-13T19:15:51;1.73;;;0.77;;
7487;SDS011;3785;52.260;4.728;2023-07-13T19:19:16;2.38;;;0.80;;
7487;SDS011;3785;52.260;4.728;2023-07-13T19:22:37;1.73;;;0.55;;
7487;SDS011;3785;52.260;4.728;2023-07-13T19:26:00;2.55;;;0.80;;
7487;SDS011;3785;52.260;4.728;2023-07-13T19:29:23;2.47;;;0.70;;
7487;SDS011;3785;52.260;4.728;2023-07-13T19:32:45;2.28;;;1.00;;
7487;SDS011;3785;52.260;4.728;2023-07-13T19:36:09;3.08;;;0.88;;
7487;SDS011;3785;52.260;4.728;2023-07-13T19:39:33;5.30;;;1.25;;
7487;SDS011;3785;52.260;4.728;2023-07-13T19:42:55;3.70;;;1.40;;
7487;SDS011;3785;52.260;4.728;2023-07-13T19:46:29;4.30;;;1.42;;
7487;SDS011;3785;52.260;4.728;2023-07-13T19:49:53;3.63;;;1.08;;
7487;SDS011;3785;52.260;4.728;2023-07-13T19:53:18;2.78;;;0.70;;
7487;SDS011;3785;52.260;4.728;2023-07-13T19:56:40;2.35;;;0.80;;
7487;SDS011;3785;52.260;4.728;2023-07-13T20:00:01;4.00;;;0.80;;
7487;SDS011;3785;52.260;4.728;2023-07-13T20:03:23;2.67;;;0.90;;
7487;SDS011;3785;52.260;4.728;2023-07-13T20:06:44;1.77;;;0.60;;
7487;SDS011;3785;52.260;4.728;2023-07-13T20:10:14;0.98;;;0.70;;
7487;SDS011;3785;52.260;4.728;2023-07-13T20:13:37;4.03;;;1.10;;
7487;SDS011;3785;52.260;4.728;2023-07-13T20:16:59;2.17;;;0.80;;
7487;SDS011;3785;52.260;4.728;2023-07-13T20:20:29;1.25;;;0.60;;
7487;SDS011;3785;52.260;4.728;2023-07-13T20:23:51;1.67;;;0.73;;
7487;SDS011;3785;52.260;4.728;2023-07-13T20:27:12;2.10;;;0.82;;
7487;SDS011;3785;52.260;4.728;2023-07-13T20:30:40;2.38;;;0.73;;
7487;SDS011;3785;52.260;4.728;2023-07-13T20:34:04;2.05;;;1.02;;
7487;SDS011;3785;52.260;4.728;2023-07-13T20:37:29;2.88;;;0.95;;
7487;SDS011;3785;52.260;4.728;2023-07-13T20:40:59;1.85;;;0.73;;
7487;SDS011;3785;52.260;4.728;2023-07-13T20:44:20;4.05;;;1.02;;
7487;SDS011;3785;52.260;4.728;2023-07-13T20:47:41;1.08;;;0.60;;
7487;SDS011;3785;52.260;4.728;2023-07-13T20:51:02;2.58;;;0.88;;
7487;SDS011;3785;52.260;4.728;2023-07-13T20:54:23;2.78;;;1.10;;
7487;SDS011;3785;52.260;4.728;2023-07-13T20:57:44;2.75;;;0.80;;
7487;SDS011;3785;52.260;4.728;2023-07-13T21:01:08;3.28;;;1.05;;
7487;SDS011;3785;52.260;4.728;2023-07-13T21:04:40;2.05;;;0.90;;
7487;SDS011;3785;52.260;4.728;2023-07-13T21:08:09;2.28;;;0.85;;
7487;SDS011;3785;52.260;4.728;2023-07-13T21:11:31;2.17;;;0.88;;
7487;SDS011;3785;52.260;4.728;2023-07-13T21:14:51;2.70;;;1.10;;
7487;SDS011;3785;52.260;4.728;2023-07-13T21:18:17;2.85;;;1.10;;
7487;SDS011;3785;52.260;4.728;2023-07-13T21:21:40;2.85;;;1.13;;
7487;SDS011;3785;52.260;4.728;2023-07-13T21:25:01;3.83;;;1.50;;
7487;SDS011;3785;52.260;4.728;2023-07-13T21:28:35;3.28;;;1.20;;
7487;SDS011;3785;52.260;4.728;2023-07-13T21:31:57;5.82;;;1.40;;